createdAt,value
2023-05-12T00:02:11.235Z,13.95
2023-05-12T00:04:38.609Z,12.60
2023-05-12T00:07:06.887Z,12.68
2023-05-12T00:09:33.130Z,12.77
2023-05-12T00:11:59.393Z,13.15
2023-05-12T00:14:25.617Z,14.07
2023-05-12T00:16:52.114Z,12.55
2023-05-12T00:19:19.052Z,13.05
2023-05-12T00:21:45.310Z,12.70
2023-05-12T00:24:11.601Z,13.15
2023-05-12T00:26:37.921Z,11.93
2023-05-12T00:29:04.149Z,12.63
2023-05-12T00:31:30.954Z,13.23
2023-05-12T00:33:57.210Z,13.07
2023-05-12T00:36:23.454Z,11.90
2023-05-12T00:38:49.701Z,12.43
2023-05-12T00:41:16.138Z,12.60
2023-05-12T00:43:42.579Z,13.77
2023-05-12T00:46:09.201Z,14.10
2023-05-12T00:48:35.708Z,12.93
2023-05-12T00:51:02.824Z,11.95
2023-05-12T00:53:41.072Z,11.45
2023-05-12T00:56:16.695Z,10.80
2023-05-12T00:58:42.957Z,9.63
2023-05-12T01:01:09.297Z,8.43
2023-05-12T01:03:35.840Z,7.47
2023-05-12T01:06:12.397Z,6.82
2023-05-12T01:08:38.968Z,7.30
2023-05-12T01:11:05.341Z,6.90
2023-05-12T01:13:31.691Z,6.97
2023-05-12T01:15:59.558Z,6.80
2023-05-12T01:18:27.253Z,5.80
2023-05-12T01:20:55.017Z,6.50
2023-05-12T01:23:24.458Z,6.30
2023-05-12T01:25:51.042Z,6.13
2023-05-12T01:28:17.898Z,7.15
2023-05-12T01:30:44.639Z,6.50
2023-05-12T01:33:11.035Z,7.22
2023-05-12T01:35:37.254Z,7.43
2023-05-12T01:38:04.158Z,7.78
2023-05-12T01:40:30.404Z,7.80
2023-05-12T01:42:56.658Z,7.63
2023-05-12T01:45:22.883Z,27.60
2023-05-12T01:47:49.176Z,8.07
2023-05-12T01:50:15.469Z,7.30
2023-05-12T01:52:41.955Z,7.65
2023-05-12T01:55:09.065Z,7.20
2023-05-12T01:57:35.329Z,7.15
2023-05-12T02:00:01.566Z,7.28
2023-05-12T02:02:28.302Z,6.93
2023-05-12T02:04:54.613Z,7.03
2023-05-12T02:07:20.859Z,6.78
2023-05-12T02:09:47.119Z,7.38
2023-05-12T02:12:13.439Z,7.18
2023-05-12T02:14:39.704Z,6.25
2023-05-12T02:17:06.065Z,5.95
2023-05-12T02:19:32.363Z,6.80
2023-05-12T02:21:59.086Z,6.32
2023-05-12T02:24:25.371Z,6.70
2023-05-12T02:26:51.624Z,5.95
2023-05-12T02:29:18.515Z,6.57
2023-05-12T02:34:11.012Z,6.15
2023-05-12T02:36:37.878Z,6.63
2023-05-12T02:39:04.173Z,6.05
2023-05-12T02:41:30.447Z,7.22
2023-05-12T02:43:56.679Z,6.28
2023-05-12T02:46:22.938Z,6.85
2023-05-12T02:48:49.230Z,7.05
2023-05-12T02:51:15.550Z,7.43
2023-05-12T02:53:41.808Z,7.20
2023-05-12T02:56:08.113Z,6.80
2023-05-12T02:58:34.642Z,6.22
2023-05-12T03:01:09.982Z,7.28
2023-05-12T03:03:37.734Z,6.20
2023-05-12T03:08:30.809Z,6.60
2023-05-12T03:10:57.101Z,6.47
2023-05-12T03:13:23.362Z,5.85
2023-05-12T03:15:49.590Z,7.03
2023-05-12T03:18:15.844Z,6.38
2023-05-12T03:20:42.185Z,8.02
2023-05-12T03:23:08.794Z,7.40
2023-05-12T03:25:35.092Z,6.30
2023-05-12T03:28:03.489Z,6.95
2023-05-12T03:30:29.804Z,7.13
2023-05-12T03:32:56.116Z,7.00
2023-05-12T03:35:22.456Z,6.70
2023-05-12T03:37:48.690Z,7.00
2023-05-12T03:40:18.469Z,7.32
2023-05-12T03:42:45.577Z,7.88
2023-05-12T03:45:12.385Z,6.95
2023-05-12T03:47:40.496Z,7.15
2023-05-12T03:50:07.850Z,7.35
2023-05-12T03:52:34.462Z,7.35
2023-05-12T03:55:00.687Z,7.57
2023-05-12T03:57:26.950Z,8.80
2023-05-12T03:59:53.197Z,7.63
2023-05-12T04:02:19.546Z,7.93
2023-05-12T04:04:45.854Z,9.32
2023-05-12T04:07:12.310Z,8.13
2023-05-12T04:09:38.598Z,6.93
2023-05-12T04:12:05.311Z,7.68
2023-05-12T04:14:41.769Z,7.25
2023-05-12T04:17:08.974Z,7.47
2023-05-12T04:19:35.217Z,7.82
2023-05-12T04:22:01.449Z,7.22
2023-05-12T04:24:27.795Z,8.32
2023-05-12T04:26:54.187Z,7.35
2023-05-12T04:29:20.405Z,7.93
2023-05-12T04:31:46.737Z,7.18
2023-05-12T04:34:12.993Z,7.90
2023-05-12T04:36:39.266Z,7.55
2023-05-12T04:39:05.517Z,13.00
2023-05-12T04:41:32.034Z,15.88
2023-05-12T04:44:00.981Z,7.95
2023-05-12T04:46:27.349Z,6.75
2023-05-12T04:48:53.639Z,5.55
2023-05-12T04:51:19.873Z,5.60
2023-05-12T04:53:46.208Z,5.47
2023-05-12T04:56:12.433Z,5.00
2023-05-12T04:58:38.650Z,5.03
2023-05-12T05:01:05.010Z,5.88
2023-05-12T05:03:31.774Z,6.55
2023-05-12T05:05:58.158Z,6.22
2023-05-12T05:08:24.435Z,7.45
2023-05-12T05:10:50.745Z,6.80
2023-05-12T05:13:17.001Z,6.70
2023-05-12T05:15:50.132Z,7.10
2023-05-12T05:18:16.487Z,8.38
2023-05-12T05:20:45.215Z,7.63
2023-05-12T05:23:12.040Z,7.07
2023-05-12T05:25:39.368Z,8.02
2023-05-12T05:28:06.172Z,9.43
2023-05-12T05:30:32.442Z,9.07
2023-05-12T05:32:58.730Z,9.02
2023-05-12T05:35:25.014Z,8.38
2023-05-12T05:37:53.678Z,9.73
2023-05-12T05:40:20.131Z,8.70
2023-05-12T05:42:46.395Z,8.70
2023-05-12T05:45:12.665Z,9.88
2023-05-12T05:47:38.927Z,9.30
2023-05-12T05:50:05.514Z,9.20
2023-05-12T05:52:31.747Z,8.85
2023-05-12T05:54:57.976Z,8.80
2023-05-12T05:57:27.725Z,8.77
2023-05-12T05:59:54.211Z,8.40
2023-05-12T06:02:23.186Z,9.07
2023-05-12T06:04:49.863Z,8.02
2023-05-12T06:07:16.783Z,7.60
2023-05-12T06:12:09.242Z,8.05
2023-05-12T06:14:35.511Z,9.00
2023-05-12T06:17:01.802Z,8.98
2023-05-12T06:19:28.072Z,8.77
2023-05-12T06:21:54.289Z,8.95
2023-05-12T06:24:20.529Z,9.25
2023-05-12T06:26:46.768Z,8.50
2023-05-12T06:29:12.993Z,8.60
2023-05-12T06:31:39.250Z,10.18
2023-05-12T06:34:05.532Z,10.70
2023-05-12T06:36:31.824Z,10.90
2023-05-12T06:38:58.156Z,11.20
2023-05-12T06:41:25.098Z,11.48
2023-05-12T06:43:51.684Z,10.55
2023-05-12T06:46:18.246Z,11.68
2023-05-12T06:48:44.794Z,12.18
2023-05-12T06:51:11.089Z,11.95
2023-05-12T06:53:38.041Z,11.55
2023-05-12T06:58:30.669Z,11.75
2023-05-12T07:00:57.474Z,13.32
2023-05-12T07:03:23.774Z,12.07
2023-05-12T07:05:50.318Z,13.07
2023-05-12T07:08:17.118Z,13.30
2023-05-12T07:10:43.434Z,13.25
2023-05-12T07:13:09.662Z,12.70
2023-05-12T07:15:36.221Z,11.90
2023-05-12T07:18:02.549Z,13.15
2023-05-12T07:20:28.837Z,12.55
2023-05-12T07:22:56.430Z,13.55
2023-05-12T07:25:22.997Z,14.05
2023-05-12T07:27:50.315Z,12.45
2023-05-12T07:30:17.052Z,12.02
2023-05-12T07:32:43.417Z,11.52
2023-05-12T07:35:10.764Z,12.68
2023-05-12T07:37:37.132Z,11.80
2023-05-12T07:40:04.540Z,13.20
2023-05-12T07:42:30.814Z,11.23
2023-05-12T07:44:57.054Z,11.98
2023-05-12T07:47:23.269Z,11.80
2023-05-12T07:49:49.508Z,11.82
2023-05-12T07:52:15.734Z,11.15
2023-05-12T07:54:42.012Z,12.30
2023-05-12T07:57:08.385Z,12.38
2023-05-12T07:59:34.693Z,11.57
2023-05-12T08:02:00.937Z,12.65
2023-05-12T08:04:27.314Z,11.63
2023-05-12T08:06:53.616Z,12.25
2023-05-12T08:09:19.832Z,9.13
2023-05-12T08:11:47.636Z,9.23
2023-05-12T08:14:16.307Z,8.02
2023-05-12T08:16:45.406Z,6.45
2023-05-12T08:19:12.691Z,7.85
2023-05-12T08:21:39.042Z,8.15
2023-05-12T08:24:05.610Z,8.20
2023-05-12T08:26:34.770Z,8.18
2023-05-12T08:29:01.703Z,7.45
2023-05-12T08:34:06.403Z,7.93
2023-05-12T08:36:35.954Z,8.13
2023-05-12T08:39:02.470Z,7.80
2023-05-12T08:41:31.563Z,7.75
2023-05-12T08:43:58.393Z,7.72
2023-05-12T08:46:25.522Z,6.45
2023-05-12T08:48:52.347Z,6.85
2023-05-12T08:51:19.184Z,7.28
2023-05-12T08:53:47.113Z,7.25
2023-05-12T08:58:45.416Z,8.07
2023-05-12T09:01:12.079Z,8.73
2023-05-12T09:03:39.005Z,9.00
2023-05-12T09:06:06.368Z,8.43
2023-05-12T09:08:33.866Z,8.80
2023-05-12T09:11:00.654Z,9.77
2023-05-12T09:13:32.705Z,8.50
2023-05-12T09:16:00.543Z,8.25
2023-05-12T09:18:31.816Z,8.55
2023-05-12T09:20:58.082Z,7.97
2023-05-12T09:23:24.291Z,7.93
2023-05-12T09:26:01.187Z,8.23
2023-05-12T09:28:37.388Z,7.65
2023-05-12T09:31:14.742Z,8.30
2023-05-12T09:36:07.788Z,6.57
2023-05-12T09:38:33.998Z,6.63
2023-05-12T09:41:00.233Z,6.53
2023-05-12T09:43:26.701Z,6.15
2023-05-12T09:45:53.151Z,6.22
2023-05-12T09:48:19.420Z,57.92
2023-05-12T09:50:50.319Z,5.68
2023-05-12T09:53:17.816Z,5.85
2023-05-12T09:55:47.694Z,5.38
2023-05-12T09:58:18.459Z,4.43
2023-05-12T10:01:12.923Z,4.50
2023-05-12T10:03:32.225Z,4.43
2023-05-12T10:06:00.830Z,4.65
2023-05-12T10:08:29.901Z,3.95
2023-05-12T10:10:56.465Z,4.43
2023-05-12T10:13:22.734Z,4.35
2023-05-12T10:15:49.792Z,4.68
2023-05-12T10:18:16.549Z,4.90
2023-05-12T10:20:44.723Z,5.53
2023-05-12T10:23:12.534Z,5.05
2023-05-12T10:25:40.648Z,4.43
2023-05-12T10:28:07.058Z,4.32
2023-05-12T10:30:33.661Z,5.22
2023-05-12T10:33:01.681Z,4.43
2023-05-12T10:35:34.910Z,5.15
2023-05-12T10:38:03.545Z,4.38
2023-05-12T10:40:29.936Z,4.22
2023-05-12T10:42:57.968Z,5.18
2023-05-12T10:45:24.330Z,6.38
2023-05-12T10:47:50.658Z,5.45
2023-05-12T10:50:27.291Z,4.30
2023-05-12T10:52:54.173Z,5.63
2023-05-12T10:57:53.308Z,6.07
2023-05-12T11:00:22.913Z,4.38
2023-05-12T11:02:51.190Z,4.75
2023-05-12T11:05:18.556Z,4.78
2023-05-12T11:07:50.217Z,5.75
2023-05-12T11:10:17.744Z,5.35
2023-05-12T11:12:44.952Z,5.72
2023-05-12T11:15:12.104Z,5.75
2023-05-12T11:17:39.909Z,4.95
2023-05-12T11:20:07.070Z,4.72
2023-05-12T11:22:33.493Z,5.13
2023-05-12T11:25:08.548Z,4.72
2023-05-12T11:27:35.798Z,5.13
2023-05-12T11:30:02.814Z,4.43
2023-05-12T11:32:29.600Z,6.28
2023-05-12T11:37:22.733Z,4.57
2023-05-12T11:39:49.140Z,3.90
2023-05-12T11:42:18.591Z,4.45
2023-05-12T11:44:48.591Z,4.93
2023-05-12T11:47:15.641Z,5.05
2023-05-12T11:49:45.719Z,4.72
2023-05-12T11:52:12.084Z,4.38
2023-05-12T11:54:38.421Z,5.00
2023-05-12T11:57:05.027Z,4.47
2023-05-12T11:59:32.697Z,5.05
2023-05-12T12:01:59.833Z,4.03
2023-05-12T12:04:36.206Z,4.75
2023-05-12T12:07:03.205Z,4.13
2023-05-12T12:11:55.996Z,4.95
2023-05-12T12:14:22.434Z,4.50
2023-05-12T12:16:48.650Z,14.00
2023-05-12T12:19:14.917Z,5.68
2023-05-12T12:21:41.207Z,4.60
2023-05-12T12:24:07.438Z,4.82
2023-05-12T12:26:33.685Z,4.28
2023-05-12T12:28:59.902Z,5.00
2023-05-12T12:31:26.171Z,5.35
2023-05-12T12:33:52.703Z,5.45
2023-05-12T12:36:18.952Z,5.75
2023-05-12T12:38:45.225Z,5.65
2023-05-12T12:41:11.481Z,5.68
2023-05-12T12:43:37.771Z,5.30
2023-05-12T12:46:04.098Z,6.38
2023-05-12T12:48:32.019Z,6.22
2023-05-12T12:50:58.329Z,5.47
2023-05-12T12:53:24.618Z,6.22
2023-05-12T12:55:51.053Z,6.13
2023-05-12T12:58:17.300Z,5.40
2023-05-12T13:00:43.603Z,5.25
2023-05-12T13:03:09.905Z,5.45
2023-05-12T13:05:36.298Z,5.78
2023-05-12T13:08:02.519Z,6.30
2023-05-12T13:10:29.119Z,5.95
2023-05-12T13:12:55.391Z,6.13
2023-05-12T13:15:21.851Z,5.53
2023-05-12T13:17:48.260Z,5.47
2023-05-12T13:20:14.947Z,5.55
2023-05-12T13:22:41.794Z,5.85
2023-05-12T13:27:34.739Z,4.95
2023-05-12T13:30:01.245Z,6.50
2023-05-12T13:32:29.172Z,5.85
2023-05-12T13:34:55.590Z,7.25
2023-05-12T13:37:22.027Z,5.43
2023-05-12T13:39:48.270Z,5.40
2023-05-12T13:42:14.524Z,5.35
2023-05-12T13:44:40.760Z,6.07
2023-05-12T13:47:10.233Z,6.50
2023-05-12T13:49:36.586Z,7.05
2023-05-12T13:52:03.524Z,6.63
2023-05-12T13:54:31.387Z,6.45
2023-05-12T13:56:57.617Z,5.93
2023-05-12T13:59:23.836Z,5.68
2023-05-12T14:01:50.545Z,6.90
2023-05-12T14:04:16.789Z,6.18
2023-05-12T14:06:43.024Z,5.90
2023-05-12T14:09:09.269Z,6.30
2023-05-12T14:11:35.682Z,6.53
2023-05-12T14:14:03.312Z,6.85
2023-05-12T14:16:30.049Z,6.80
2023-05-12T14:18:56.784Z,6.32
2023-05-12T14:21:23.079Z,6.22
2023-05-12T14:23:51.248Z,5.72
2023-05-12T14:26:17.770Z,5.97
2023-05-12T14:28:44.032Z,6.30
2023-05-12T14:31:10.482Z,5.93
2023-05-12T14:33:37.057Z,5.90
2023-05-12T14:36:08.024Z,5.88
2023-05-12T14:38:35.670Z,6.05
2023-05-12T14:43:28.145Z,6.47
2023-05-12T14:45:54.713Z,7.00
2023-05-12T14:48:22.218Z,6.28
2023-05-12T14:50:48.464Z,6.60
2023-05-12T14:53:15.368Z,6.97
2023-05-12T14:55:41.643Z,5.90
2023-05-12T14:58:07.889Z,6.25
2023-05-12T15:00:34.395Z,5.60
2023-05-12T15:03:02.412Z,5.75
2023-05-12T15:05:41.129Z,5.65
2023-05-12T15:08:13.871Z,4.53
2023-05-12T15:10:40.234Z,3.83
2023-05-12T15:13:06.528Z,3.25
2023-05-12T15:15:33.327Z,2.90
2023-05-12T15:20:26.442Z,3.05
2023-05-12T15:22:54.383Z,3.20
2023-05-12T15:25:20.956Z,2.30
2023-05-12T15:27:47.385Z,2.15
2023-05-12T15:30:13.841Z,2.55
2023-05-12T15:32:42.944Z,2.05
2023-05-12T15:35:09.522Z,2.20
2023-05-12T15:37:35.930Z,1.75
2023-05-12T15:40:02.506Z,2.10
2023-05-12T15:42:33.125Z,2.10
2023-05-12T15:44:59.844Z,1.77
2023-05-12T15:47:27.325Z,1.83
2023-05-12T15:49:54.342Z,2.20
2023-05-12T15:52:20.587Z,2.00
2023-05-12T15:54:46.864Z,1.83
2023-05-12T15:57:13.639Z,2.08
2023-05-12T15:59:39.887Z,2.13
2023-05-12T16:02:06.385Z,1.90
2023-05-12T16:04:32.730Z,2.00
2023-05-12T16:06:59.003Z,2.13
2023-05-12T16:09:25.270Z,2.58
2023-05-12T16:11:51.911Z,1.80
2023-05-12T16:14:18.704Z,1.88
2023-05-12T16:16:48.308Z,2.42
2023-05-12T16:19:15.402Z,2.20
2023-05-12T16:21:44.810Z,2.03
2023-05-12T16:24:11.492Z,1.90
2023-05-12T16:26:37.845Z,2.08
2023-05-12T16:29:04.120Z,2.35
2023-05-12T16:31:33.488Z,2.63
2023-05-12T16:33:59.967Z,2.10
2023-05-12T16:36:26.276Z,2.53
2023-05-12T16:38:52.612Z,3.00
2023-05-12T16:41:18.921Z,2.47
2023-05-12T16:43:45.376Z,1.90
2023-05-12T16:46:11.843Z,1.88
2023-05-12T16:48:38.314Z,1.45
2023-05-12T16:51:06.589Z,1.48
2023-05-12T16:53:33.247Z,1.30
2023-05-12T16:55:59.517Z,1.52
2023-05-12T16:58:27.481Z,1.70
2023-05-12T17:00:53.869Z,1.30
2023-05-12T17:03:20.291Z,1.27
2023-05-12T17:05:46.847Z,1.10
2023-05-12T17:08:13.313Z,1.50
2023-05-12T17:10:39.562Z,1.33
2023-05-12T17:13:06.456Z,1.10
2023-05-12T17:17:58.978Z,1.00
2023-05-12T17:20:25.314Z,0.80
2023-05-12T17:22:51.667Z,1.10
2023-05-12T17:25:21.938Z,1.00
2023-05-12T17:27:49.205Z,1.27
2023-05-12T17:30:16.279Z,1.30
2023-05-12T17:32:42.652Z,1.35
2023-05-12T17:35:09.275Z,0.93
2023-05-12T17:37:35.991Z,1.38
2023-05-12T17:40:02.629Z,1.30
2023-05-12T17:42:31.114Z,1.55
2023-05-12T17:44:58.381Z,1.25
2023-05-12T17:47:25.061Z,1.77
2023-05-12T17:49:52.091Z,1.20
2023-05-12T17:54:44.508Z,1.23
2023-05-12T17:57:10.869Z,1.30
2023-05-12T17:59:37.092Z,1.65
2023-05-12T18:02:03.756Z,1.38
2023-05-12T18:04:29.998Z,1.73
2023-05-12T18:06:57.169Z,1.42
2023-05-12T18:09:23.454Z,1.15
2023-05-12T18:11:49.710Z,1.38
2023-05-12T18:14:16.292Z,1.30
2023-05-12T18:16:42.790Z,1.50
2023-05-12T18:19:09.621Z,1.25
2023-05-12T18:24:02.096Z,1.30
2023-05-12T18:26:28.717Z,1.40
2023-05-12T18:28:54.940Z,1.40
2023-05-12T18:31:21.245Z,1.40
2023-05-12T18:33:48.559Z,1.30
2023-05-12T18:36:15.356Z,1.50
2023-05-12T18:38:42.100Z,1.33
2023-05-12T18:41:08.561Z,1.70
2023-05-12T18:43:35.018Z,1.55
2023-05-12T18:46:01.584Z,1.20
2023-05-12T18:48:27.943Z,1.50
2023-05-12T18:50:55.542Z,1.10
2023-05-12T18:53:22.086Z,1.70
2023-05-12T18:55:49.663Z,1.30
2023-05-12T18:58:18.691Z,1.67
2023-05-12T19:00:45.315Z,1.13
2023-05-12T19:03:11.643Z,1.23
2023-05-12T19:05:40.624Z,1.35
2023-05-12T19:08:07.106Z,1.30
2023-05-12T19:10:33.341Z,1.30
2023-05-12T19:12:59.590Z,1.40
2023-05-12T19:15:25.823Z,1.15
2023-05-12T19:17:52.105Z,1.10
2023-05-12T19:20:18.384Z,1.00
2023-05-12T19:22:45.155Z,1.30
2023-05-12T19:25:11.623Z,1.25
2023-05-12T19:27:37.920Z,1.80
2023-05-12T19:30:05.321Z,1.20
2023-05-12T19:32:32.212Z,0.98
2023-05-12T19:35:00.086Z,1.45
2023-05-12T19:37:27.372Z,1.35
2023-05-12T19:39:53.743Z,1.30
2023-05-12T19:42:19.981Z,1.38
2023-05-12T19:44:46.225Z,1.40
2023-05-12T19:47:12.604Z,1.95
2023-05-12T19:49:38.913Z,1.05
2023-05-12T19:52:05.911Z,1.38
2023-05-12T19:56:58.379Z,1.40
2023-05-12T19:59:24.738Z,1.33
2023-05-12T20:01:51.228Z,1.20
2023-05-12T20:04:17.470Z,2.05
2023-05-12T20:06:44.030Z,1.65
2023-05-12T20:09:10.562Z,1.25
2023-05-12T20:11:36.758Z,1.75
2023-05-12T20:14:03.000Z,1.25
2023-05-12T20:16:29.456Z,1.17
2023-05-12T20:18:55.767Z,1.52
2023-05-12T20:21:22.048Z,1.33
2023-05-12T20:23:48.292Z,1.17
2023-05-12T20:26:14.793Z,1.30
2023-05-12T20:28:41.088Z,1.40
2023-05-12T20:31:07.970Z,1.27
2023-05-12T20:36:00.487Z,1.38
2023-05-12T20:38:26.765Z,1.30
2023-05-12T20:40:53.014Z,1.42
2023-05-12T20:43:19.300Z,2.00
2023-05-12T20:45:45.649Z,1.35
2023-05-12T20:48:12.032Z,2.10
2023-05-12T20:50:38.371Z,1.75
2023-05-12T20:53:04.894Z,1.38
2023-05-12T20:55:34.198Z,1.33
2023-05-12T20:58:00.540Z,1.10
2023-05-12T21:00:26.907Z,1.20
2023-05-12T21:02:53.702Z,1.55
2023-05-12T21:05:20.718Z,1.35
2023-05-12T21:07:47.167Z,1.40
2023-05-12T21:10:13.517Z,1.33
2023-05-12T21:12:39.833Z,1.70
2023-05-12T21:15:06.631Z,1.23
2023-05-12T21:17:33.006Z,1.63
2023-05-12T21:19:59.306Z,1.48
2023-05-12T21:22:25.532Z,1.27
2023-05-12T21:24:51.841Z,1.50
2023-05-12T21:27:18.114Z,1.30
2023-05-12T21:29:44.347Z,1.23
2023-05-12T21:32:11.096Z,1.30
2023-05-12T21:34:37.417Z,1.73
2023-05-12T21:37:03.701Z,1.42
2023-05-12T21:39:29.933Z,1.42
2023-05-12T21:41:56.189Z,1.85
2023-05-12T21:44:22.410Z,1.60
2023-05-12T21:46:48.754Z,1.48
2023-05-12T21:49:14.998Z,1.63
2023-05-12T21:51:41.914Z,2.10
2023-05-12T21:56:35.112Z,1.60
2023-05-12T21:59:01.522Z,1.85
2023-05-12T22:01:28.754Z,1.60
2023-05-12T22:03:56.939Z,1.63
2023-05-12T22:06:23.177Z,1.75
2023-05-12T22:08:49.406Z,1.92
2023-05-12T22:11:16.294Z,1.80
2023-05-12T22:16:09.112Z,1.90
2023-05-12T22:18:35.540Z,2.20
2023-05-12T22:21:01.826Z,1.92
2023-05-12T22:23:28.038Z,1.60
2023-05-12T22:25:54.322Z,1.77
2023-05-12T22:28:20.595Z,1.83
2023-05-12T22:30:46.833Z,1.50
2023-05-12T22:33:13.086Z,1.83
2023-05-12T22:35:39.299Z,2.10
2023-05-12T22:38:05.711Z,1.60
2023-05-12T22:40:32.787Z,1.55
2023-05-12T22:42:59.145Z,1.55
2023-05-12T22:45:25.830Z,1.67
2023-05-12T22:47:52.214Z,1.50
2023-05-12T22:50:18.730Z,1.77
2023-05-12T22:52:45.073Z,1.30
2023-05-12T22:55:11.397Z,2.10
2023-05-12T22:57:40.983Z,1.52
2023-05-12T23:00:07.610Z,1.90
2023-05-12T23:02:33.893Z,1.70
2023-05-12T23:05:00.235Z,2.10
2023-05-12T23:07:26.541Z,2.55
2023-05-12T23:09:52.747Z,1.90
2023-05-12T23:12:19.046Z,1.83
2023-05-12T23:14:45.283Z,1.98
2023-05-12T23:17:11.646Z,1.98
2023-05-12T23:19:37.950Z,1.90
2023-05-12T23:22:04.272Z,1.70
2023-05-12T23:24:30.544Z,2.00
2023-05-12T23:26:56.823Z,2.08
2023-05-12T23:29:23.251Z,2.50
2023-05-12T23:31:49.547Z,2.13
2023-05-12T23:34:15.827Z,2.28
2023-05-12T23:36:42.353Z,1.85
2023-05-12T23:39:09.520Z,2.10
2023-05-12T23:41:36.386Z,1.70
2023-05-12T23:44:02.983Z,2.10
2023-05-12T23:46:29.205Z,2.00
2023-05-12T23:48:56.278Z,1.90
2023-05-12T23:51:23.022Z,1.80
2023-05-12T23:53:49.324Z,2.10
2023-05-12T23:56:15.626Z,2.17
2023-05-12T23:58:41.883Z,2.35
